Time;durP1;ratioP1;P1;durP2;ratioP2;P2;SDS_P1;SDS_P2;PMS_P1;PMS_P2;Temp;Humidity;BMP_temperature;BMP_pressure;BME280_temperature;BME280_humidity;BME280_pressure;Samples;Min_cycle;Max_cycle;Signal;HPM_P1;HPM_P2
2022/07/14 00:01:12;;;;;;;;;5.40;5.40;;;;;23.50;36.22;99745.97;5087714;28;9691;-74
2022/07/14 00:03:42;;;;;;;;;4.60;4.60;;;;;23.51;36.24;99754.81;5107192;28;8865;-75
2022/07/14 00:06:11;;;;;;;;;5.60;5.60;;;;;23.53;36.19;99750.28;5107928;28;8932;-74
2022/07/14 00:08:39;;;;;;;;;5.40;4.60;;;;;23.55;36.15;99757.25;5109861;28;8876;-74
2022/07/14 00:11:08;;;;;;;;;5.20;5.20;;;;;23.55;36.23;99746.63;5109935;28;8873;-76
2022/07/14 00:13:37;;;;;;;;;4.80;4.80;;;;;23.52;36.27;99744.09;5092451;28;8882;-75
2022/07/14 00:16:06;;;;;;;;;6.20;6.20;;;;;23.54;36.61;99744.03;5096603;28;8848;-74
2022/07/14 00:18:37;;;;;;;;;5.40;5.40;;;;;23.50;36.44;99756.63;5096243;28;8950;-75
2022/07/14 00:21:07;;;;;;;;;6.00;4.80;;;;;23.51;36.51;99744.16;5092018;28;8964;-75
2022/07/14 00:23:36;;;;;;;;;5.80;5.80;;;;;23.50;36.42;99753.13;5093313;28;8978;-75
2022/07/14 00:26:05;;;;;;;;;4.80;4.80;;;;;23.49;36.50;99754.03;5090315;28;8859;-75
2022/07/14 00:28:33;;;;;;;;;6.40;6.40;;;;;23.42;36.41;99752.63;5057376;28;8940;-75
2022/07/14 00:31:07;;;;;;;;;5.00;5.00;;;;;23.40;36.97;99749.19;5091457;28;8836;-73
2022/07/14 00:33:38;;;;;;;;;7.40;7.40;;;;;23.33;37.18;99753.97;5072753;28;8851;-73
2022/07/14 00:36:09;;;;;;;;;5.40;5.40;;;;;23.30;37.54;99744.31;5058896;27;9007;-75
2022/07/14 00:38:37;;;;;;;;;5.00;5.00;;;;;23.27;37.76;99749.81;5092795;28;9627;-75
2022/07/14 00:41:06;;;;;;;;;5.20;5.20;;;;;23.27;37.88;99754.25;5111689;28;8896;-74
2022/07/14 00:43:36;;;;;;;;;6.40;5.80;;;;;23.05;38.27;99754.47;5110912;28;8959;-73
2022/07/14 00:46:05;;;;;;;;;5.40;5.00;;;;;23.04;38.58;99760.69;5110091;28;8909;-74
2022/07/14 00:48:34;;;;;;;;;6.40;6.40;;;;;23.14;38.74;99751.34;5110717;28;8861;-76
2022/07/14 00:51:03;;;;;;;;;6.60;6.20;;;;;23.09;38.73;99762.19;5109971;28;8879;-74
2022/07/14 00:53:33;;;;;;;;;6.00;6.00;;;;;23.13;38.57;99755.78;5106144;27;8868;-76
2022/07/14 00:56:02;;;;;;;;;5.00;5.00;;;;;23.17;38.39;99753.84;5073274;28;8956;-75
2022/07/14 00:58:31;;;;;;;;;5.00;5.00;;;;;23.16;38.51;99747.66;5060461;28;8863;-75
2022/07/14 01:00:59;;;;;;;;;5.60;5.60;;;;;23.09;38.66;99740.06;5107376;28;8863;-75
2022/07/14 01:03:27;;;;;;;;;3.60;3.40;;;;;23.14;38.45;99749.53;5107175;28;8839;-75
2022/07/14 01:05:56;;;;;;;;;5.60;4.00;;;;;23.18;38.67;99752.06;5106897;28;8928;-74
2022/07/14 01:08:24;;;;;;;;;6.20;6.20;;;;;23.15;38.54;99759.22;5090568;27;8855;-75
2022/07/14 01:10:54;;;;;;;;;6.00;6.00;;;;;23.18;38.56;99760.06;5090012;28;8863;-73
2022/07/14 01:13:23;;;;;;;;;6.20;6.20;;;;;23.20;38.65;99751.03;5123875;27;8871;-74
2022/07/14 01:15:54;;;;;;;;;6.40;6.40;;;;;23.17;38.48;99756.50;5091088;28;9744;-74
2022/07/14 01:18:23;;;;;;;;;5.00;5.00;;;;;23.19;38.68;99754.63;5089938;28;9651;-74
2022/07/14 01:20:51;;;;;;;;;5.40;4.80;;;;;23.19;38.93;99757.28;5050738;28;8870;-75
2022/07/14 01:23:21;;;;;;;;;7.60;6.80;;;;;23.17;38.66;99759.16;5018765;28;8847;-74
2022/07/14 01:25:50;;;;;;;;;5.40;5.20;;;;;23.13;39.17;99762.91;5029590;28;8854;-74
2022/07/14 01:28:19;;;;;;;;;5.00;5.00;;;;;23.11;39.41;99756.81;5048074;28;8854;-74
2022/07/14 01:30:48;;;;;;;;;5.20;5.20;;;;;23.10;39.27;99755.06;5048290;28;8944;-76
2022/07/14 01:33:17;;;;;;;;;6.40;6.20;;;;;23.04;39.41;99756.22;5047616;28;8850;-75
2022/07/14 01:35:46;;;;;;;;;4.00;4.00;;;;;22.89;39.60;99754.28;5047968;28;8964;-75
2022/07/14 01:38:15;;;;;;;;;6.00;6.00;;;;;22.91;39.93;99755.97;5047720;28;8864;-74
2022/07/14 01:40:45;;;;;;;;;6.60;6.20;;;;;22.89;39.85;99747.19;5031344;28;8967;-75
2022/07/14 01:43:16;;;;;;;;;5.20;5.20;;;;;22.84;40.08;99754.53;5012690;28;8910;-74
2022/07/14 01:45:44;;;;;;;;;6.80;6.80;;;;;22.83;40.21;99747.47;5047944;28;8842;-75
2022/07/14 01:48:13;;;;;;;;;5.40;5.40;;;;;22.84;40.27;99751.88;5031074;28;8846;-75
2022/07/14 01:50:42;;;;;;;;;7.20;6.80;;;;;22.84;40.25;99751.88;5047448;28;9465;-75
2022/07/14 01:53:13;;;;;;;;;6.20;6.20;;;;;22.82;40.25;99751.06;5086106;28;8955;-75
2022/07/14 01:55:43;;;;;;;;;6.40;6.40;;;;;22.81;40.22;99751.16;5070857;28;8865;-76
2022/07/14 01:58:14;;;;;;;;;5.80;5.80;;;;;22.80;40.61;99750.28;5109904;28;9053;-74
2022/07/14 02:00:42;;;;;;;;;7.00;7.00;;;;;22.79;40.30;99748.56;5090318;28;8870;-74
2022/07/14 02:03:11;;;;;;;;;7.60;7.00;;;;;22.70;40.72;99757.84;5090939;28;8832;-74
2022/07/14 02:05:39;;;;;;;;;6.00;5.40;;;;;22.74;40.71;99754.09;5058282;28;8948;-74
2022/07/14 02:08:08;;;;;;;;;5.20;5.20;;;;;22.76;40.72;99752.22;5090736;28;8839;-75
2022/07/14 02:13:27;;;;;;;;;5.20;5.20;;;;;22.74;40.92;99764.75;5091198;28;8966;-76
2022/07/14 02:15:55;;;;;;;;;4.80;4.80;;;;;22.72;41.06;99761.28;5074540;28;8972;-75
2022/07/14 02:18:24;;;;;;;;;5.80;5.80;;;;;22.70;40.84;99764.94;5071136;28;8881;-73
2022/07/14 02:20:53;;;;;;;;;6.80;6.80;;;;;22.71;41.02;99770.19;5070779;28;8969;-74
2022/07/14 02:23:21;;;;;;;;;6.00;6.00;;;;;22.71;40.51;99764.88;5070572;28;8838;-75
2022/07/14 02:25:50;;;;;;;;;6.40;6.40;;;;;22.71;40.99;99766.69;5084183;28;8974;-74
2022/07/14 02:28:19;;;;;;;;;5.80;5.80;;;;;22.72;40.77;99769.28;5090523;28;9641;-74
2022/07/14 02:30:50;;;;;;;;;6.20;6.20;;;;;22.73;40.76;99762.16;5088635;27;8864;-72
2022/07/14 02:33:19;;;;;;;;;5.60;5.60;;;;;22.74;40.73;99766.50;5120073;27;8863;-74
2022/07/14 02:35:48;;;;;;;;;7.00;7.00;;;;;22.73;40.87;99759.50;5053447;28;8897;-74
2022/07/14 02:38:16;;;;;;;;;7.00;7.00;;;;;22.69;40.80;99755.25;5049314;28;9592;-76
2022/07/14 02:40:45;;;;;;;;;6.60;6.60;;;;;22.68;41.10;99757.03;5066543;28;8854;-75
2022/07/14 02:43:14;;;;;;;;;6.40;6.40;;;;;22.68;41.00;99761.50;5033158;28;8842;-75
2022/07/14 02:45:43;;;;;;;;;7.60;6.20;;;;;22.62;41.04;99757.31;5017260;28;8893;-75
2022/07/14 02:48:13;;;;;;;;;5.60;5.60;;;;;22.63;41.10;99760.84;5013348;28;8845;-75
2022/07/14 02:50:41;;;;;;;;;7.40;7.40;;;;;22.60;41.21;99756.53;5069916;28;8833;-75
2022/07/14 02:53:11;;;;;;;;;5.60;5.60;;;;;22.58;41.15;99759.25;5069563;28;8904;-74
2022/07/14 02:55:44;;;;;;;;;5.20;5.20;;;;;22.61;41.25;99757.38;5083112;28;8845;-74
2022/07/14 02:58:13;;;;;;;;;6.20;5.80;;;;;22.58;41.42;99758.41;5052883;28;8850;-75
2022/07/14 03:00:42;;;;;;;;;6.20;6.20;;;;;22.60;41.09;99747.72;5053036;28;8849;-74
2022/07/14 03:03:12;;;;;;;;;6.40;5.80;;;;;22.61;41.35;99749.41;5019720;28;8882;-75
2022/07/14 03:05:41;;;;;;;;;6.60;6.60;;;;;22.60;41.23;99751.22;5069307;28;8825;-75
2022/07/14 03:08:10;;;;;;;;;6.60;6.20;;;;;22.60;41.39;99755.69;5052487;28;8841;-74
2022/07/14 03:10:39;;;;;;;;;33.00;30.00;;;;;22.49;41.53;99759.69;5106943;28;8861;-74
2022/07/14 03:13:08;;;;;;;;;26.25;24.75;;;;;22.50;41.41;99760.56;5125368;27;8861;-75
2022/07/14 03:15:38;;;;;;;;;24.00;22.40;;;;;22.42;41.73;99766.25;5091073;28;8873;-73
2022/07/14 03:18:07;;;;;;;;;18.80;17.80;;;;;22.45;41.58;99765.22;5056960;28;8845;-75
2022/07/14 03:20:40;;;;;;;;;19.00;17.00;;;;;22.46;42.06;99754.53;5123194;27;8979;-74
2022/07/14 03:23:09;;;;;;;;;16.20;14.80;;;;;22.50;41.54;99755.25;5056647;28;8976;-74
2022/07/14 03:25:42;;;;;;;;;12.60;12.60;;;;;22.38;41.78;99761.97;5090791;28;8910;-75
2022/07/14 03:28:11;;;;;;;;;8.00;8.00;;;;;22.53;41.62;99763.06;5107844;28;8948;-74
2022/07/14 03:30:41;;;;;;;;;10.00;9.80;;;;;22.63;41.38;99764.38;5100454;28;8849;-74
2022/07/14 03:33:10;;;;;;;;;7.00;6.60;;;;;22.70;41.42;99764.94;5036145;28;8845;-75
2022/07/14 03:35:41;;;;;;;;;8.80;8.80;;;;;22.72;41.39;99761.28;5085818;28;8885;-74
2022/07/14 03:38:10;;;;;;;;;8.80;8.20;;;;;22.77;41.19;99774.34;5069135;28;8960;-74
2022/07/14 03:41:02;;;;;;;;;8.40;7.80;;;;;22.87;40.98;99769.47;5103552;28;8867;-73
2022/07/14 03:43:34;;;;;;;;;6.80;6.80;;;;;22.93;41.00;99766.50;5091988;28;8855;-73
2022/07/14 03:46:04;;;;;;;;;9.40;9.40;;;;;23.02;40.97;99762.53;5108974;28;8841;-74
2022/07/14 03:48:35;;;;;;;;;9.80;8.80;;;;;23.07;41.11;99764.06;5090405;28;8918;-74
2022/07/14 03:51:07;;;;;;;;;8.60;8.60;;;;;23.16;40.80;99766.28;5106970;28;8849;-74
2022/07/14 03:53:39;;;;;;;;;18.00;16.00;;;;;23.19;40.76;99759.94;5087888;28;8840;-74
2022/07/14 03:56:09;;;;;;;;;20.80;20.00;;;;;23.28;40.75;99762.16;5086758;28;9004;-73
2022/07/14 03:58:43;;;;;;;;;9.20;9.20;;;;;23.35;40.63;99752.94;5101129;28;8872;-74
2022/07/14 04:01:13;;;;;;;;;8.00;8.00;;;;;23.45;40.48;99750.66;5087474;28;8939;-73
2022/07/14 04:03:43;;;;;;;;;8.00;5.60;;;;;23.54;40.36;99757.34;5086773;28;8848;-74
2022/07/14 04:06:14;;;;;;;;;6.60;6.60;;;;;23.64;39.96;99763.91;5105641;28;8849;-74
2022/07/14 04:08:44;;;;;;;;;11.40;8.80;;;;;23.70;40.16;99766.25;5105374;28;8853;-73
2022/07/14 04:11:13;;;;;;;;;7.00;6.00;;;;;23.77;40.02;99765.94;5105589;28;8857;-74
2022/07/14 04:13:41;;;;;;;;;6.20;5.00;;;;;23.87;39.70;99765.41;5071691;28;8865;-74
2022/07/14 04:16:10;;;;;;;;;15.20;15.20;;;;;23.90;39.51;99769.72;5105123;28;8972;-73
2022/07/14 04:18:44;;;;;;;;;72.75;61.00;;;;;23.99;39.37;99763.94;5105090;28;8859;-73
2022/07/14 04:21:15;;;;;;;;;47.00;39.25;;;;;24.06;39.51;99770.63;5069845;28;9719;-74
2022/07/14 04:23:44;;;;;;;;;11.80;11.00;;;;;24.16;38.88;99764.81;5104794;28;8879;-75
2022/07/14 04:26:13;;;;;;;;;10.40;10.40;;;;;24.25;38.86;99769.66;5051800;28;8861;-73
2022/07/14 04:28:43;;;;;;;;;6.20;6.20;;;;;23.90;39.22;99767.91;5104514;28;8963;-73
2022/07/14 04:31:12;;;;;;;;;7.60;7.40;;;;;24.04;38.90;99769.00;5104337;28;8864;-75
2022/07/14 04:33:42;;;;;;;;;9.40;9.40;;;;;23.77;39.46;99777.47;5104145;28;8876;-74
2022/07/14 04:36:11;;;;;;;;;6.40;6.40;;;;;24.01;39.19;99775.34;5103362;28;8945;-75
2022/07/14 04:38:41;;;;;;;;;9.20;9.20;;;;;24.21;39.35;99776.09;5104163;28;8860;-73
2022/07/14 04:41:10;;;;;;;;;12.00;11.80;;;;;24.33;38.85;99773.66;5102951;28;8853;-74
2022/07/14 04:43:41;;;;;;;;;6.40;6.40;;;;;24.55;38.70;99780.50;5104554;28;8853;-74
2022/07/14 04:46:11;;;;;;;;;8.00;7.60;;;;;24.61;37.98;99782.84;5069466;28;8869;-73
2022/07/14 04:54:22;;;;;;;;;6.80;6.80;;;;;25.06;37.54;99783.03;5103563;28;8863;-75
2022/07/14 04:56:58;;;;;;;;;9.40;8.60;;;;;24.68;37.39;99778.03;5101084;28;8841;-74
2022/07/14 04:59:48;;;;;;;;;7.40;7.40;;;;;24.96;37.19;99779.16;5076938;28;8841;-75
2022/07/14 05:02:16;;;;;;;;;7.80;7.80;;;;;25.17;37.03;99785.94;5088138;28;8849;-74
2022/07/14 05:04:45;;;;;;;;;5.80;5.80;;;;;25.32;37.28;99783.38;5109162;28;8865;-74
2022/07/14 05:07:14;;;;;;;;;8.60;8.60;;;;;25.28;36.48;99786.22;5073371;28;8972;-74
2022/07/14 05:09:52;;;;;;;;;7.20;7.20;;;;;25.23;36.84;99790.09;5107274;28;8872;-75
2022/07/14 05:12:21;;;;;;;;;8.20;7.80;;;;;25.41;36.96;99785.53;5088673;28;8868;-75
2022/07/14 05:14:50;;;;;;;;;9.00;7.00;;;;;25.52;36.57;99787.53;5106830;28;8798;-74
2022/07/14 05:17:19;;;;;;;;;5.80;5.80;;;;;25.50;35.88;99787.66;5105352;28;8934;-75
2022/07/14 05:20:01;;;;;;;;;6.60;6.60;;;;;25.54;35.58;99790.97;5086384;28;8986;-76
2022/07/14 05:22:35;;;;;;;;;7.40;7.40;;;;;25.38;36.45;99791.03;5125196;27;8911;-75
2022/07/14 05:25:08;;;;;;;;;10.80;10.80;;;;;25.26;36.50;99797.94;5111754;28;8959;-75
2022/07/14 05:27:38;;;;;;;;;9.00;9.00;;;;;24.73;37.32;99791.97;5126829;27;8853;-75
2022/07/14 05:30:11;;;;;;;;;8.80;8.00;;;;;25.08;37.02;99795.34;5121677;27;8917;-75
2022/07/14 05:32:39;;;;;;;;;7.40;7.20;;;;;25.36;36.80;99793.78;5148149;27;8867;-72
2022/07/14 05:35:09;;;;;;;;;8.20;7.00;;;;;24.99;36.75;99801.19;5131557;27;8831;-75
2022/07/14 05:37:38;;;;;;;;;9.40;8.00;;;;;24.93;37.07;99800.66;5097117;27;8885;-74
2022/07/14 05:40:09;;;;;;;;;8.60;8.60;;;;;25.04;37.08;99803.59;5146906;27;8882;-74
2022/07/14 05:42:38;;;;;;;;;9.00;8.60;;;;;25.10;36.80;99803.25;5056123;28;9600;-74
2022/07/14 05:45:09;;;;;;;;;7.60;7.60;;;;;25.00;36.89;99812.72;5109127;27;8843;-74
2022/07/14 05:47:41;;;;;;;;;8.00;7.00;;;;;24.91;37.47;99814.09;5114181;27;8839;-74
2022/07/14 05:50:11;;;;;;;;;8.00;8.00;;;;;24.88;37.45;99814.28;5096767;27;8907;-71
2022/07/14 05:52:42;;;;;;;;;8.80;8.40;;;;;25.26;37.18;99803.28;5110220;27;9015;-71
2022/07/14 05:55:13;;;;;;;;;2.20;2.20;;;;;25.37;36.77;99814.22;5110385;27;8823;-72
2022/07/14 05:57:42;;;;;;;;;8.20;8.20;;;;;25.21;36.64;99814.16;5130708;27;8862;-71
2022/07/14 06:00:12;;;;;;;;;7.40;7.40;;;;;25.06;37.12;99815.03;5078487;27;8871;-71
2022/07/14 06:02:46;;;;;;;;;13.80;10.20;;;;;25.33;37.09;99817.13;5107751;28;8867;-74
2022/07/14 06:05:19;;;;;;;;;8.40;8.40;;;;;25.58;36.35;99817.44;5109484;28;8861;-72
2022/07/14 06:07:49;;;;;;;;;10.20;10.20;;;;;25.81;36.29;99809.88;5108621;28;8847;-70
2022/07/14 06:10:19;;;;;;;;;9.20;7.80;;;;;25.51;36.08;99809.88;5108016;28;8945;-72
2022/07/14 06:12:51;;;;;;;;;9.60;8.80;;;;;25.59;36.40;99815.63;5091163;28;9614;-72
2022/07/14 06:15:23;;;;;;;;;12.20;9.20;;;;;25.90;36.27;99812.00;5108295;28;8860;-73
2022/07/14 06:17:51;;;;;;;;;10.60;10.60;;;;;25.85;36.08;99811.41;5108755;28;8929;-72
2022/07/14 06:20:21;;;;;;;;;10.80;10.80;;;;;25.76;36.04;99812.81;5107309;28;8841;-75
2022/07/14 06:22:52;;;;;;;;;11.00;11.00;;;;;25.87;36.26;99814.84;5106987;28;8845;-72
2022/07/14 06:25:22;;;;;;;;;13.00;11.60;;;;;25.89;36.67;99807.59;5112268;27;8849;-72
2022/07/14 06:27:51;;;;;;;;;10.00;10.00;;;;;26.28;35.98;99803.50;5096536;28;8862;-72
2022/07/14 06:30:21;;;;;;;;;11.00;11.00;;;;;25.95;35.84;99801.91;5104662;28;9670;-71
2022/07/14 06:32:49;;;;;;;;;12.20;11.20;;;;;25.37;37.21;99810.66;5105604;28;8849;-73
2022/07/14 06:35:19;;;;;;;;;12.80;12.80;;;;;25.46;36.86;99802.09;5103359;27;8865;-71
2022/07/14 06:37:48;;;;;;;;;12.60;12.00;;;;;25.46;37.46;99805.66;5104806;28;8837;-73
2022/07/14 06:40:18;;;;;;;;;14.20;13.20;;;;;25.51;37.17;99808.06;5088449;28;8853;-71
2022/07/14 06:42:49;;;;;;;;;11.40;10.60;;;;;25.71;37.21;99798.88;5088802;28;8849;-72
2022/07/14 06:45:36;;;;;;;;;8.20;8.20;;;;;26.15;36.78;99799.84;5105372;28;8880;-72
2022/07/14 06:48:06;;;;;;;;;8.80;8.80;;;;;26.49;36.06;99800.44;5098505;28;8840;-72
2022/07/14 06:50:35;;;;;;;;;9.40;9.40;;;;;26.59;35.77;99790.88;5106711;28;8930;-72
2022/07/14 06:53:03;;;;;;;;;10.60;10.00;;;;;26.55;36.30;99794.69;5054636;28;8865;-72
2022/07/14 06:55:32;;;;;;;;;10.20;8.00;;;;;26.38;36.59;99798.44;5107831;28;8833;-69
2022/07/14 06:58:02;;;;;;;;;9.80;8.20;;;;;26.78;35.64;99794.13;5108062;28;8857;-77
2022/07/14 07:00:31;;;;;;;;;12.00;11.00;;;;;26.81;35.52;99788.59;5099008;28;8914;-76
2022/07/14 07:03:00;;;;;;;;;9.60;8.60;;;;;26.37;36.29;99799.38;5087489;28;8898;-76
2022/07/14 07:08:14;;;;;;;;;9.80;9.60;;;;;26.44;35.83;99790.03;5088243;28;8844;-75
2022/07/14 07:10:43;;;;;;;;;9.00;8.80;;;;;26.31;36.41;99795.25;5072498;28;8952;-77
2022/07/14 07:13:12;;;;;;;;;11.80;11.00;;;;;26.73;35.85;99798.94;5055250;28;8879;-75
2022/07/14 07:15:41;;;;;;;;;10.20;10.00;;;;;27.05;35.81;99790.63;5053473;28;8855;-79
2022/07/14 07:18:10;;;;;;;;;10.20;10.20;;;;;27.07;35.55;99783.38;5088919;28;8873;-78
2022/07/14 07:20:38;;;;;;;;;9.40;9.20;;;;;27.39;34.64;99781.28;5089065;28;8863;-76
2022/07/14 07:23:07;;;;;;;;;35.75;31.50;;;;;27.00;35.40;99787.41;5087806;28;8844;-76
2022/07/14 07:25:35;;;;;;;;;11.20;11.20;;;;;26.72;36.00;99781.16;5088870;28;8962;-78
2022/07/14 07:28:05;;;;;;;;;9.40;8.80;;;;;26.89;36.14;99787.25;5045921;28;8850;-76
2022/07/14 07:30:35;;;;;;;;;9.20;9.20;;;;;26.72;36.17;99781.16;5079298;28;8965;-75
2022/07/14 07:33:04;;;;;;;;;12.00;12.00;;;;;26.41;36.51;99793.75;5082699;28;8863;-75
2022/07/14 07:35:33;;;;;;;;;13.80;12.00;;;;;26.04;37.27;99796.00;5065955;28;8886;-75
2022/07/14 07:38:07;;;;;;;;;11.00;9.80;;;;;25.83;38.33;99787.44;5065474;28;8853;-74
2022/07/14 07:40:36;;;;;;;;;8.20;8.20;;;;;25.95;38.26;99788.53;5050561;28;8926;-75
2022/07/14 07:43:05;;;;;;;;;11.60;11.00;;;;;26.16;37.75;99789.06;5065583;28;8927;-74
2022/07/14 07:45:34;;;;;;;;;8.00;8.00;;;;;25.88;37.79;99788.03;5062229;28;8909;-76
2022/07/14 07:48:04;;;;;;;;;13.00;12.40;;;;;25.83;38.34;99786.59;5000434;28;8886;-73
2022/07/14 07:50:33;;;;;;;;;11.60;11.60;;;;;26.23;37.63;99781.53;4998649;28;8883;-74
2022/07/14 07:53:02;;;;;;;;;13.40;11.60;;;;;26.16;37.69;99785.53;5049086;28;8859;-79
2022/07/14 07:55:32;;;;;;;;;12.60;11.60;;;;;26.19;38.14;99783.53;5050167;28;8859;-79
2022/07/14 07:58:00;;;;;;;;;11.00;11.00;;;;;26.20;37.55;99781.69;5049911;28;9632;-75
2022/07/14 08:00:30;;;;;;;;;10.00;10.00;;;;;26.43;37.72;99778.47;5109946;28;8868;-75
2022/07/14 08:03:02;;;;;;;;;12.00;12.00;;;;;26.47;37.09;99780.97;5088470;28;8948;-75
2022/07/14 08:05:32;;;;;;;;;9.20;9.20;;;;;26.12;37.17;99773.31;5073515;28;8836;-74
2022/07/14 08:08:21;;;;;;;;;10.00;9.80;;;;;26.43;37.20;99773.13;5104678;28;8865;-73
2022/07/14 08:10:50;;;;;;;;;8.80;8.80;;;;;26.87;36.69;99765.91;5086918;28;8867;-76
2022/07/14 08:13:18;;;;;;;;;10.60;10.00;;;;;26.64;36.58;99778.09;5069930;28;8982;-73
2022/07/14 08:15:47;;;;;;;;;12.00;12.00;;;;;26.58;37.30;99770.44;5097722;28;8963;-74
2022/07/14 08:18:17;;;;;;;;;11.40;10.80;;;;;27.01;36.26;99754.31;5071144;28;8861;-75
2022/07/14 08:20:46;;;;;;;;;13.60;12.80;;;;;27.47;36.06;99759.34;5120129;28;8837;-74
2022/07/14 08:23:14;;;;;;;;;10.80;10.80;;;;;27.84;35.22;99764.00;5085490;28;8866;-76
2022/07/14 08:25:43;;;;;;;;;12.60;11.80;;;;;28.11;34.75;99747.84;5105636;28;9030;-74
2022/07/14 08:28:13;;;;;;;;;12.80;11.40;;;;;28.26;34.69;99749.47;5107713;28;8949;-76
2022/07/14 08:30:42;;;;;;;;;11.80;11.20;;;;;28.62;34.66;99755.88;5075540;28;8869;-74
2022/07/14 08:33:10;;;;;;;;;12.40;12.40;;;;;28.32;34.12;99759.75;5098901;28;8856;-76
2022/07/14 08:35:41;;;;;;;;;10.40;10.40;;;;;28.51;33.82;99750.38;5122998;27;8844;-74
2022/07/14 08:38:09;;;;;;;;;12.00;9.80;;;;;27.70;34.69;99754.22;5123125;27;9601;-71
2022/07/14 08:40:39;;;;;;;;;9.20;9.20;;;;;27.96;34.62;99752.47;5090437;28;8871;-73
2022/07/14 08:43:11;;;;;;;;;11.40;11.00;;;;;27.65;34.59;99749.19;5089725;28;8848;-71
2022/07/14 08:45:42;;;;;;;;;10.00;8.00;;;;;27.95;34.10;99748.91;5090305;28;8875;-72
2022/07/14 08:48:11;;;;;;;;;9.60;8.60;;;;;28.31;33.71;99752.66;5097227;28;9558;-73
2022/07/14 08:50:42;;;;;;;;;11.60;11.60;;;;;28.22;33.34;99753.31;5108560;28;8869;-74
2022/07/14 08:53:12;;;;;;;;;10.40;10.40;;;;;28.65;33.02;99752.94;5091219;28;8987;-71
2022/07/14 08:55:41;;;;;;;;;11.00;10.00;;;;;28.61;33.60;99739.88;5108949;28;8930;-72
2022/07/14 08:58:10;;;;;;;;;7.00;7.00;;;;;28.62;33.84;99745.13;5109699;28;8869;-72
2022/07/14 09:00:39;;;;;;;;;9.40;9.40;;;;;28.90;33.78;99738.59;5107701;28;8852;-72
2022/07/14 09:03:08;;;;;;;;;11.40;11.40;;;;;29.16;33.06;99741.19;5108397;28;8948;-74
2022/07/14 09:05:47;;;;;;;;;9.20;9.20;;;;;28.48;33.62;99738.03;5060120;28;8869;-74
2022/07/14 09:08:17;;;;;;;;;12.00;11.20;;;;;28.74;33.71;99741.53;5110306;28;8857;-72
2022/07/14 09:10:47;;;;;;;;;10.20;10.00;;;;;28.93;32.73;99733.00;5074297;28;8872;-74
2022/07/14 09:13:34;;;;;;;;;11.20;10.60;;;;;28.48;32.51;99740.72;5109620;28;8880;-73
2022/07/14 09:16:19;;;;;;;;;7.20;7.20;;;;;28.74;31.98;99743.38;5108630;28;8913;-77
2022/07/14 09:19:05;;;;;;;;;12.80;9.80;;;;;29.18;31.44;99728.50;5033196;28;8846;-76
2022/07/14 09:21:38;;;;;;;;;11.00;9.00;;;;;29.07;30.95;99729.28;5047348;28;8823;-71
2022/07/14 09:24:07;;;;;;;;;12.80;11.80;;;;;28.80;32.44;99734.03;5063631;28;8896;-71
2022/07/14 09:26:43;;;;;;;;;12.40;12.40;;;;;28.84;31.55;99719.41;5066136;28;9489;-72
2022/07/14 09:29:18;;;;;;;;;10.80;10.20;;;;;28.70;30.93;99723.09;5065852;28;8886;-72
2022/07/14 09:31:48;;;;;;;;;9.00;9.00;;;;;28.34;31.41;99727.44;5051274;28;8882;-71
2022/07/14 09:34:31;;;;;;;;;11.00;11.00;;;;;28.67;31.83;99723.31;5050823;28;8898;-72
2022/07/14 09:37:15;;;;;;;;;10.80;10.80;;;;;28.83;32.28;99720.34;5065610;28;8877;-73
2022/07/14 09:39:55;;;;;;;;;11.80;11.60;;;;;29.15;32.02;99710.81;5036511;28;8880;-72
2022/07/14 09:42:48;;;;;;;;;11.00;10.80;;;;;29.19;31.22;99719.50;5063041;28;8834;-72
2022/07/14 09:45:18;;;;;;;;;0.80;0.80;;;;;28.71;31.98;99714.91;5066677;28;8972;-75
2022/07/14 09:47:59;;;;;;;;;10.40;10.40;;;;;28.87;31.17;99711.13;5065808;28;8854;-74
2022/07/14 09:50:47;;;;;;;;;10.40;10.40;;;;;28.68;31.50;99709.78;5048776;28;8908;-73
2022/07/14 09:53:22;;;;;;;;;10.00;10.00;;;;;28.91;32.04;99708.09;5048966;28;9547;-74
2022/07/14 09:55:55;;;;;;;;;12.60;12.40;;;;;29.13;31.32;99710.06;5062938;28;9666;-75
2022/07/14 09:58:26;;;;;;;;;11.80;11.40;;;;;29.43;30.94;99697.09;5107721;28;8963;-78
2022/07/14 10:01:06;;;;;;;;;10.20;9.80;;;;;29.04;30.11;99710.72;5109365;28;8929;-73
2022/07/14 10:03:39;;;;;;;;;8.40;8.40;;;;;29.01;29.51;99700.19;5093956;28;8879;-74
2022/07/14 10:06:10;;;;;;;;;12.60;11.00;;;;;29.07;31.28;99696.19;5106772;28;8853;-73
2022/07/14 10:09:02;;;;;;;;;22.75;22.00;;;;;29.11;31.78;99690.50;5107218;28;8837;-71
2022/07/14 10:11:30;;;;;;;;;15.60;14.40;;;;;29.40;31.43;99691.97;5103238;28;8883;-76
2022/07/14 10:14:00;;;;;;;;;12.40;11.80;;;;;29.76;31.09;99693.66;5107788;28;9745;-76
2022/07/14 10:16:33;;;;;;;;;9.60;9.60;;;;;30.07;30.31;99699.31;5106321;28;8849;-73
2022/07/14 10:19:04;;;;;;;;;9.80;9.80;;;;;29.92;30.34;99688.81;5100025;28;8907;-73
2022/07/14 10:21:45;;;;;;;;;9.80;9.00;;;;;29.51;28.98;99697.38;5106480;28;8837;-72
2022/07/14 10:24:17;;;;;;;;;9.80;9.00;;;;;29.54;28.77;99686.38;5090710;28;8970;-71
2022/07/14 10:26:47;;;;;;;;;8.80;8.80;;;;;29.50;29.53;99693.81;5102616;28;8836;-73
2022/07/14 10:29:16;;;;;;;;;8.00;8.00;;;;;29.72;27.83;99681.41;5090277;28;8859;-75
2022/07/14 10:32:01;;;;;;;;;10.00;8.80;;;;;29.33;28.55;99678.13;5088354;28;8871;-73
2022/07/14 10:34:37;;;;;;;;;9.00;7.20;;;;;29.69;28.67;99670.88;5105258;28;8868;-73
2022/07/14 10:37:10;;;;;;;;;7.60;7.60;;;;;30.09;28.66;99673.97;5107621;28;8996;-72
2022/07/14 10:39:49;;;;;;;;;8.60;8.00;;;;;30.27;27.25;99677.03;5108710;28;8867;-72
2022/07/14 10:42:26;;;;;;;;;6.00;5.40;;;;;29.99;26.47;99667.63;5100574;28;8883;-73
2022/07/14 10:44:56;;;;;;;;;7.00;7.00;;;;;29.85;26.99;99654.41;5089217;28;8908;-73
2022/07/14 10:47:44;;;;;;;;;6.80;6.80;;;;;29.94;27.26;99661.75;5089337;28;8852;-73
2022/07/14 10:50:13;;;;;;;;;8.40;8.40;;;;;29.97;26.90;99658.00;5083699;28;8920;-72
2022/07/14 10:52:51;;;;;;;;;9.80;6.80;;;;;29.91;26.92;99659.34;5087723;28;8836;-71
2022/07/14 10:55:24;;;;;;;;;5.80;5.80;;;;;29.79;27.19;99661.13;5104846;28;8853;-73
2022/07/14 10:58:32;;;;;;;;;7.00;7.00;;;;;29.97;26.88;99653.47;5105212;28;8864;-76
2022/07/14 11:01:00;;;;;;;;;6.20;6.20;;;;;29.90;25.72;99657.59;5043950;28;8984;-73
2022/07/14 11:03:50;;;;;;;;;7.40;7.40;;;;;29.88;27.21;99660.41;5064785;28;8918;-74
2022/07/14 11:06:21;;;;;;;;;10.20;10.20;;;;;29.98;27.53;99651.63;5064289;28;9624;-74
2022/07/14 11:09:30;;;;;;;;;7.00;5.80;;;;;30.42;26.31;99639.16;5062444;28;8887;-75
2022/07/14 11:12:11;;;;;;;;;7.40;7.40;;;;;30.28;27.08;99643.78;5002509;28;8912;-75
2022/07/14 11:14:42;;;;;;;;;6.00;6.00;;;;;30.20;27.21;99640.84;5024573;28;8868;-72
2022/07/14 11:17:39;;;;;;;;;7.80;7.40;;;;;30.17;27.01;99640.22;5007856;28;8845;-71
2022/07/14 11:20:10;;;;;;;;;6.60;6.60;;;;;30.55;26.77;99625.50;4975380;28;8856;-71
2022/07/14 11:22:40;;;;;;;;;5.80;5.80;;;;;30.98;26.51;99620.09;5024162;28;8871;-72
2022/07/14 11:25:26;;;;;;;;;5.60;5.00;;;;;31.42;24.99;99625.41;5007927;28;8875;-70
2022/07/14 11:27:56;;;;;;;;;4.20;3.80;;;;;31.67;21.67;99622.28;5007435;28;8867;-70
2022/07/14 11:30:28;;;;;;;;;7.80;7.80;;;;;31.78;22.98;99618.66;5022832;28;9098;-69
2022/07/14 11:33:00;;;;;;;;;4.00;4.00;;;;;31.95;22.47;99619.00;5024200;28;8852;-71
2022/07/14 11:39:22;;;;;;;;;9.00;9.00;;;;;32.57;22.37;99611.69;5077090;28;8844;-70
2022/07/14 11:42:00;;;;;;;;;6.60;6.00;;;;;32.33;23.18;99615.59;5067875;28;8831;-72
2022/07/14 11:44:47;;;;;;;;;5.80;5.80;;;;;32.58;22.20;99610.69;5084202;28;8920;-71
2022/07/14 11:47:17;;;;;;;;;4.00;4.00;;;;;32.98;21.76;99604.31;5084508;28;8873;-70
2022/07/14 11:49:55;;;;;;;;;11.60;11.60;;;;;33.40;19.77;99599.44;5093739;28;8899;-70
2022/07/14 11:52:27;;;;;;;;;7.00;7.00;;;;;33.90;19.44;99600.97;5104269;28;8886;-71
2022/07/14 11:54:57;;;;;;;;;5.80;5.80;;;;;34.34;20.01;99605.75;5104697;28;8849;-71
2022/07/14 11:57:26;;;;;;;;;4.40;4.40;;;;;34.80;18.74;99594.88;5107364;28;8837;-69
2022/07/14 12:00:02;;;;;;;;;6.80;6.60;;;;;35.29;19.33;99600.72;5106945;28;8853;-70
2022/07/14 12:02:32;;;;;;;;;5.20;5.20;;;;;35.53;18.77;99598.16;5088104;28;8907;-70
2022/07/14 12:05:03;;;;;;;;;4.40;4.40;;;;;35.98;18.18;99598.94;5109150;28;8852;-71
2022/07/14 12:07:45;;;;;;;;;5.80;5.80;;;;;36.40;17.98;99600.78;5091746;28;8876;-71
2022/07/14 12:10:16;;;;;;;;;4.60;4.60;;;;;36.81;17.83;99597.31;5110840;28;8861;-72
2022/07/14 12:12:47;;;;;;;;;3.20;3.20;;;;;37.23;17.12;99593.56;5106291;28;8862;-70